Terminal Aerodrome Forecast
Issued by NWS Twin Cities, MN

Home | Current Version | Previous Version | Graphics & Text | Print | Product List | Glossary On
Versions: 1 2 3 4 5 6 7 8 9 10 11 12 13 14 15 16 17 18 19 20 21 22 23 24 25 26 27 28 29
827
FTUS43 KMPX 280108 AAA
TAFMSP
TAF AMD
KMSP 280108Z 2801/2906 34008KT P6SM -SHRA SCT018 BKN024 OVC090
      TEMPO 2807/2811 BKN015 OVC020
     FM281600 36012G18KT P6SM BKN025 OVC050
     FM282200 36009KT P6SM SCT050=

USA.gov is the U.S. government's official web portal to all federal, state and local government web resources and services.